sensor_id;sensor_type;location;lat;lon;timestamp;P1;durP1;ratioP1;P2;durP2;ratioP2
78838;SDS011;68405;47.190;27.558;2023-07-13T00:01:09;10.50;;;7.70;;
78838;SDS011;68405;47.190;27.558;2023-07-13T00:03:42;10.90;;;8.80;;
78838;SDS011;68405;47.190;27.558;2023-07-13T00:06:11;12.00;;;8.10;;
78838;SDS011;68405;47.190;27.558;2023-07-13T00:08:40;10.00;;;8.60;;
78838;SDS011;68405;47.190;27.558;2023-07-13T00:11:09;9.50;;;8.30;;
78838;SDS011;68405;47.190;27.558;2023-07-13T00:13:38;11.70;;;8.80;;
78838;SDS011;68405;47.190;27.558;2023-07-13T00:16:07;9.90;;;7.80;;
78838;SDS011;68405;47.190;27.558;2023-07-13T00:18:37;13.20;;;8.50;;
78838;SDS011;68405;47.190;27.558;2023-07-13T00:21:07;13.20;;;9.60;;
78838;SDS011;68405;47.190;27.558;2023-07-13T00:23:37;11.80;;;9.20;;
78838;SDS011;68405;47.190;27.558;2023-07-13T00:26:07;11.70;;;9.00;;
78838;SDS011;68405;47.190;27.558;2023-07-13T00:28:38;10.90;;;9.20;;
78838;SDS011;68405;47.190;27.558;2023-07-13T00:31:09;10.40;;;8.80;;
78838;SDS011;68405;47.190;27.558;2023-07-13T00:33:39;10.80;;;9.00;;
78838;SDS011;68405;47.190;27.558;2023-07-13T00:36:08;13.70;;;9.00;;
78838;SDS011;68405;47.190;27.558;2023-07-13T00:38:38;10.50;;;8.90;;
78838;SDS011;68405;47.190;27.558;2023-07-13T00:41:07;11.30;;;8.50;;
78838;SDS011;68405;47.190;27.558;2023-07-13T00:43:37;10.20;;;8.80;;
78838;SDS011;68405;47.190;27.558;2023-07-13T00:48:54;11.90;;;8.60;;
78838;SDS011;68405;47.190;27.558;2023-07-13T00:51:27;10.80;;;9.00;;
78838;SDS011;68405;47.190;27.558;2023-07-13T00:54:01;12.10;;;8.50;;
78838;SDS011;68405;47.190;27.558;2023-07-13T00:56:34;11.90;;;8.50;;
78838;SDS011;68405;47.190;27.558;2023-07-13T00:59:05;12.20;;;8.80;;
78838;SDS011;68405;47.190;27.558;2023-07-13T01:01:35;11.40;;;8.40;;
78838;SDS011;68405;47.190;27.558;2023-07-13T01:04:06;9.50;;;8.40;;
78838;SDS011;68405;47.190;27.558;2023-07-13T01:06:35;9.30;;;8.30;;
78838;SDS011;68405;47.190;27.558;2023-07-13T01:09:05;10.70;;;9.20;;
78838;SDS011;68405;47.190;27.558;2023-07-13T01:11:37;9.80;;;8.80;;
78838;SDS011;68405;47.190;27.558;2023-07-13T01:14:06;9.70;;;8.60;;
78838;SDS011;68405;47.190;27.558;2023-07-13T01:16:35;11.30;;;8.70;;
78838;SDS011;68405;47.190;27.558;2023-07-13T01:19:07;9.80;;;8.70;;
78838;SDS011;68405;47.190;27.558;2023-07-13T01:21:46;9.40;;;8.20;;
78838;SDS011;68405;47.190;27.558;2023-07-13T01:24:19;10.90;;;9.30;;
78838;SDS011;68405;47.190;27.558;2023-07-13T01:26:48;12.20;;;8.70;;
78838;SDS011;68405;47.190;27.558;2023-07-13T01:29:17;11.90;;;9.00;;
78838;SDS011;68405;47.190;27.558;2023-07-13T01:31:46;9.70;;;8.30;;
78838;SDS011;68405;47.190;27.558;2023-07-13T01:34:15;9.60;;;7.50;;
78838;SDS011;68405;47.190;27.558;2023-07-13T01:36:44;10.70;;;8.60;;
78838;SDS011;68405;47.190;27.558;2023-07-13T01:39:13;11.60;;;7.30;;
78838;SDS011;68405;47.190;27.558;2023-07-13T01:41:42;8.50;;;7.60;;
78838;SDS011;68405;47.190;27.558;2023-07-13T01:44:29;8.30;;;7.50;;
78838;SDS011;68405;47.190;27.558;2023-07-13T01:46:58;8.90;;;6.40;;
78838;SDS011;68405;47.190;27.558;2023-07-13T01:49:28;8.40;;;6.80;;
78838;SDS011;68405;47.190;27.558;2023-07-13T01:51:57;8.20;;;6.80;;
78838;SDS011;68405;47.190;27.558;2023-07-13T01:54:26;8.40;;;6.10;;
78838;SDS011;68405;47.190;27.558;2023-07-13T01:56:54;7.40;;;6.10;;
78838;SDS011;68405;47.190;27.558;2023-07-13T01:59:23;8.20;;;6.90;;
78838;SDS011;68405;47.190;27.558;2023-07-13T02:01:52;7.00;;;5.40;;
78838;SDS011;68405;47.190;27.558;2023-07-13T02:04:21;7.30;;;6.00;;
78838;SDS011;68405;47.190;27.558;2023-07-13T02:06:50;7.80;;;6.20;;
78838;SDS011;68405;47.190;27.558;2023-07-13T02:09:19;8.10;;;6.00;;
78838;SDS011;68405;47.190;27.558;2023-07-13T02:11:48;6.30;;;5.70;;
78838;SDS011;68405;47.190;27.558;2023-07-13T02:14:17;6.90;;;6.00;;
78838;SDS011;68405;47.190;27.558;2023-07-13T02:16:46;8.20;;;6.60;;
78838;SDS011;68405;47.190;27.558;2023-07-13T02:19:15;6.90;;;5.60;;
78838;SDS011;68405;47.190;27.558;2023-07-13T02:21:44;8.80;;;6.10;;
78838;SDS011;68405;47.190;27.558;2023-07-13T02:24:13;9.40;;;6.10;;
78838;SDS011;68405;47.190;27.558;2023-07-13T02:26:44;8.30;;;5.50;;
78838;SDS011;68405;47.190;27.558;2023-07-13T02:29:13;8.60;;;6.30;;
78838;SDS011;68405;47.190;27.558;2023-07-13T02:31:43;8.50;;;5.90;;
78838;SDS011;68405;47.190;27.558;2023-07-13T02:34:12;8.80;;;5.60;;
78838;SDS011;68405;47.190;27.558;2023-07-13T02:36:40;8.50;;;6.10;;
78838;SDS011;68405;47.190;27.558;2023-07-13T02:39:10;9.30;;;6.50;;
78838;SDS011;68405;47.190;27.558;2023-07-13T02:41:41;7.50;;;5.50;;
78838;SDS011;68405;47.190;27.558;2023-07-13T02:44:10;8.10;;;5.00;;
78838;SDS011;68405;47.190;27.558;2023-07-13T02:46:41;6.60;;;5.30;;
78838;SDS011;68405;47.190;27.558;2023-07-13T02:49:10;8.80;;;5.80;;
78838;SDS011;68405;47.190;27.558;2023-07-13T02:51:39;6.80;;;5.60;;
78838;SDS011;68405;47.190;27.558;2023-07-13T02:54:09;6.40;;;5.30;;
78838;SDS011;68405;47.190;27.558;2023-07-13T02:56:40;6.20;;;5.00;;
78838;SDS011;68405;47.190;27.558;2023-07-13T02:59:10;5.70;;;5.10;;
78838;SDS011;68405;47.190;27.558;2023-07-13T03:01:39;7.10;;;5.70;;
78838;SDS011;68405;47.190;27.558;2023-07-13T03:04:08;6.30;;;4.60;;
78838;SDS011;68405;47.190;27.558;2023-07-13T03:06:37;6.70;;;4.50;;
78838;SDS011;68405;47.190;27.558;2023-07-13T03:09:06;5.10;;;4.20;;
78838;SDS011;68405;47.190;27.558;2023-07-13T03:11:35;4.80;;;4.10;;
78838;SDS011;68405;47.190;27.558;2023-07-13T03:14:04;6.00;;;4.60;;
78838;SDS011;68405;47.190;27.558;2023-07-13T03:16:33;5.30;;;4.40;;
78838;SDS011;68405;47.190;27.558;2023-07-13T03:19:02;5.80;;;4.50;;
78838;SDS011;68405;47.190;27.558;2023-07-13T03:21:31;7.70;;;4.60;;
78838;SDS011;68405;47.190;27.558;2023-07-13T03:24:00;6.40;;;5.00;;
78838;SDS011;68405;47.190;27.558;2023-07-13T03:26:29;7.80;;;4.40;;
78838;SDS011;68405;47.190;27.558;2023-07-13T03:28:58;5.70;;;4.80;;
78838;SDS011;68405;47.190;27.558;2023-07-13T03:31:29;5.20;;;4.50;;
78838;SDS011;68405;47.190;27.558;2023-07-13T03:34:01;6.10;;;4.90;;
78838;SDS011;68405;47.190;27.558;2023-07-13T03:36:30;6.90;;;5.10;;
78838;SDS011;68405;47.190;27.558;2023-07-13T03:39:00;7.50;;;5.40;;
78838;SDS011;68405;47.190;27.558;2023-07-13T03:41:30;6.60;;;5.40;;
78838;SDS011;68405;47.190;27.558;2023-07-13T03:43:59;7.40;;;4.90;;
78838;SDS011;68405;47.190;27.558;2023-07-13T03:46:28;8.60;;;5.70;;
78838;SDS011;68405;47.190;27.558;2023-07-13T03:48:57;6.70;;;5.20;;
78838;SDS011;68405;47.190;27.558;2023-07-13T03:51:27;9.80;;;5.40;;
78838;SDS011;68405;47.190;27.558;2023-07-13T03:53:56;9.10;;;5.90;;
78838;SDS011;68405;47.190;27.558;2023-07-13T03:56:25;7.40;;;4.80;;
78838;SDS011;68405;47.190;27.558;2023-07-13T03:58:54;10.00;;;5.40;;
78838;SDS011;68405;47.190;27.558;2023-07-13T04:01:24;7.20;;;5.50;;
78838;SDS011;68405;47.190;27.558;2023-07-13T04:03:53;7.00;;;5.20;;
78838;SDS011;68405;47.190;27.558;2023-07-13T04:06:23;9.00;;;5.30;;
78838;SDS011;68405;47.190;27.558;2023-07-13T04:08:54;6.20;;;5.10;;
78838;SDS011;68405;47.190;27.558;2023-07-13T04:11:27;8.50;;;4.80;;
78838;SDS011;68405;47.190;27.558;2023-07-13T04:16:27;7.80;;;5.20;;
78838;SDS011;68405;47.190;27.558;2023-07-13T04:18:57;6.20;;;4.30;;
78838;SDS011;68405;47.190;27.558;2023-07-13T04:21:26;5.00;;;4.00;;
78838;SDS011;68405;47.190;27.558;2023-07-13T04:23:57;4.30;;;3.70;;
78838;SDS011;68405;47.190;27.558;2023-07-13T04:26:26;6.20;;;4.20;;
78838;SDS011;68405;47.190;27.558;2023-07-13T04:28:57;4.90;;;4.40;;
78838;SDS011;68405;47.190;27.558;2023-07-13T04:31:26;7.40;;;4.00;;
78838;SDS011;68405;47.190;27.558;2023-07-13T04:33:56;5.80;;;3.90;;
78838;SDS011;68405;47.190;27.558;2023-07-13T04:36:25;6.80;;;4.60;;
78838;SDS011;68405;47.190;27.558;2023-07-13T04:38:55;8.00;;;4.60;;
78838;SDS011;68405;47.190;27.558;2023-07-13T04:41:24;6.30;;;4.30;;
78838;SDS011;68405;47.190;27.558;2023-07-13T04:43:54;7.10;;;4.10;;
78838;SDS011;68405;47.190;27.558;2023-07-13T04:46:22;6.30;;;4.40;;
78838;SDS011;68405;47.190;27.558;2023-07-13T04:48:52;6.20;;;4.00;;
78838;SDS011;68405;47.190;27.558;2023-07-13T04:51:21;5.10;;;3.70;;
78838;SDS011;68405;47.190;27.558;2023-07-13T04:53:50;6.70;;;4.10;;
78838;SDS011;68405;47.190;27.558;2023-07-13T04:56:19;5.60;;;4.20;;
78838;SDS011;68405;47.190;27.558;2023-07-13T04:58:49;4.70;;;3.70;;
78838;SDS011;68405;47.190;27.558;2023-07-13T05:01:18;6.60;;;4.10;;
78838;SDS011;68405;47.190;27.558;2023-07-13T05:03:47;5.30;;;4.20;;
78838;SDS011;68405;47.190;27.558;2023-07-13T05:06:17;4.80;;;4.00;;
78838;SDS011;68405;47.190;27.558;2023-07-13T05:08:46;4.40;;;4.00;;
78838;SDS011;68405;47.190;27.558;2023-07-13T05:11:15;5.20;;;4.10;;
78838;SDS011;68405;47.190;27.558;2023-07-13T05:13:45;4.80;;;3.90;;
78838;SDS011;68405;47.190;27.558;2023-07-13T05:16:14;8.00;;;4.40;;
78838;SDS011;68405;47.190;27.558;2023-07-13T05:18:43;6.30;;;4.20;;
78838;SDS011;68405;47.190;27.558;2023-07-13T05:21:12;4.90;;;4.40;;
78838;SDS011;68405;47.190;27.558;2023-07-13T05:23:41;7.10;;;4.80;;
78838;SDS011;68405;47.190;27.558;2023-07-13T05:26:10;5.20;;;4.30;;
78838;SDS011;68405;47.190;27.558;2023-07-13T05:28:40;6.90;;;4.10;;
78838;SDS011;68405;47.190;27.558;2023-07-13T05:31:09;5.30;;;4.40;;
78838;SDS011;68405;47.190;27.558;2023-07-13T05:33:38;7.90;;;4.60;;
78838;SDS011;68405;47.190;27.558;2023-07-13T05:36:07;4.90;;;4.30;;
78838;SDS011;68405;47.190;27.558;2023-07-13T05:38:37;5.10;;;4.30;;
78838;SDS011;68405;47.190;27.558;2023-07-13T05:41:07;6.60;;;4.20;;
78838;SDS011;68405;47.190;27.558;2023-07-13T05:43:36;6.20;;;4.50;;
78838;SDS011;68405;47.190;27.558;2023-07-13T05:46:05;5.60;;;4.20;;
78838;SDS011;68405;47.190;27.558;2023-07-13T05:48:34;5.70;;;4.60;;
78838;SDS011;68405;47.190;27.558;2023-07-13T05:51:03;5.30;;;4.10;;
78838;SDS011;68405;47.190;27.558;2023-07-13T05:53:33;4.80;;;4.30;;
78838;SDS011;68405;47.190;27.558;2023-07-13T05:56:02;5.60;;;4.30;;
78838;SDS011;68405;47.190;27.558;2023-07-13T05:58:32;5.20;;;4.70;;
78838;SDS011;68405;47.190;27.558;2023-07-13T06:01:03;5.30;;;4.50;;
78838;SDS011;68405;47.190;27.558;2023-07-13T06:03:37;6.50;;;4.80;;
78838;SDS011;68405;47.190;27.558;2023-07-13T06:06:07;5.00;;;4.60;;
78838;SDS011;68405;47.190;27.558;2023-07-13T06:08:38;5.60;;;4.80;;
78838;SDS011;68405;47.190;27.558;2023-07-13T06:11:08;5.30;;;4.30;;
78838;SDS011;68405;47.190;27.558;2023-07-13T06:13:41;6.70;;;4.70;;
78838;SDS011;68405;47.190;27.558;2023-07-13T06:16:12;7.50;;;4.70;;
78838;SDS011;68405;47.190;27.558;2023-07-13T06:18:42;7.60;;;4.70;;
78838;SDS011;68405;47.190;27.558;2023-07-13T06:21:12;7.00;;;5.10;;
78838;SDS011;68405;47.190;27.558;2023-07-13T06:23:43;9.00;;;4.70;;
78838;SDS011;68405;47.190;27.558;2023-07-13T06:26:14;6.70;;;5.30;;
78838;SDS011;68405;47.190;27.558;2023-07-13T06:28:43;8.20;;;5.90;;
78838;SDS011;68405;47.190;27.558;2023-07-13T06:31:13;11.20;;;5.80;;
78838;SDS011;68405;47.190;27.558;2023-07-13T06:33:42;11.60;;;6.10;;
78838;SDS011;68405;47.190;27.558;2023-07-13T06:36:12;5.40;;;4.70;;
78838;SDS011;68405;47.190;27.558;2023-07-13T06:38:41;11.90;;;5.30;;
78838;SDS011;68405;47.190;27.558;2023-07-13T06:41:10;8.60;;;5.70;;
78838;SDS011;68405;47.190;27.558;2023-07-13T06:43:39;11.10;;;6.10;;
78838;SDS011;68405;47.190;27.558;2023-07-13T06:46:08;7.60;;;5.40;;
78838;SDS011;68405;47.190;27.558;2023-07-13T06:48:37;7.10;;;5.80;;
78838;SDS011;68405;47.190;27.558;2023-07-13T06:51:06;6.90;;;5.30;;
78838;SDS011;68405;47.190;27.558;2023-07-13T06:53:36;11.00;;;6.10;;
78838;SDS011;68405;47.190;27.558;2023-07-13T06:56:05;9.00;;;5.50;;
78838;SDS011;68405;47.190;27.558;2023-07-13T06:58:34;7.20;;;6.40;;
78838;SDS011;68405;47.190;27.558;2023-07-13T07:01:03;8.10;;;6.20;;
78838;SDS011;68405;47.190;27.558;2023-07-13T07:03:33;10.80;;;6.70;;
78838;SDS011;68405;47.190;27.558;2023-07-13T07:06:03;9.20;;;6.20;;
78838;SDS011;68405;47.190;27.558;2023-07-13T07:08:41;10.50;;;5.90;;
78838;SDS011;68405;47.190;27.558;2023-07-13T07:11:11;7.30;;;6.60;;
78838;SDS011;68405;47.190;27.558;2023-07-13T07:13:42;7.20;;;6.00;;
78838;SDS011;68405;47.190;27.558;2023-07-13T07:16:11;8.90;;;6.60;;
78838;SDS011;68405;47.190;27.558;2023-07-13T07:18:40;8.60;;;7.40;;
78838;SDS011;68405;47.190;27.558;2023-07-13T07:21:10;9.00;;;6.00;;
78838;SDS011;68405;47.190;27.558;2023-07-13T07:23:39;8.00;;;6.50;;
78838;SDS011;68405;47.190;27.558;2023-07-13T07:26:09;8.30;;;6.40;;
78838;SDS011;68405;47.190;27.558;2023-07-13T07:28:38;6.90;;;6.40;;
78838;SDS011;68405;47.190;27.558;2023-07-13T07:31:08;7.80;;;7.10;;
78838;SDS011;68405;47.190;27.558;2023-07-13T07:33:37;7.60;;;6.90;;
78838;SDS011;68405;47.190;27.558;2023-07-13T07:36:09;7.40;;;6.70;;
78838;SDS011;68405;47.190;27.558;2023-07-13T07:38:39;7.90;;;6.90;;
78838;SDS011;68405;47.190;27.558;2023-07-13T07:41:08;6.80;;;5.80;;
78838;SDS011;68405;47.190;27.558;2023-07-13T07:43:37;8.40;;;7.00;;
78838;SDS011;68405;47.190;27.558;2023-07-13T07:46:08;6.30;;;5.70;;
78838;SDS011;68405;47.190;27.558;2023-07-13T07:48:37;7.00;;;6.40;;
78838;SDS011;68405;47.190;27.558;2023-07-13T07:51:06;7.60;;;6.30;;
78838;SDS011;68405;47.190;27.558;2023-07-13T07:53:35;7.70;;;6.90;;
78838;SDS011;68405;47.190;27.558;2023-07-13T07:56:04;7.50;;;6.80;;
78838;SDS011;68405;47.190;27.558;2023-07-13T07:58:33;7.80;;;7.00;;
78838;SDS011;68405;47.190;27.558;2023-07-13T08:01:03;6.70;;;6.20;;
78838;SDS011;68405;47.190;27.558;2023-07-13T08:03:33;7.80;;;6.60;;
78838;SDS011;68405;47.190;27.558;2023-07-13T08:06:03;7.50;;;6.80;;
78838;SDS011;68405;47.190;27.558;2023-07-13T08:08:32;7.90;;;7.40;;
78838;SDS011;68405;47.190;27.558;2023-07-13T08:11:04;6.80;;;6.10;;
78838;SDS011;68405;47.190;27.558;2023-07-13T08:13:35;7.50;;;6.80;;
78838;SDS011;68405;47.190;27.558;2023-07-13T08:16:04;7.90;;;6.90;;
78838;SDS011;68405;47.190;27.558;2023-07-13T08:18:34;8.20;;;6.60;;
78838;SDS011;68405;47.190;27.558;2023-07-13T08:21:04;7.20;;;6.60;;
78838;SDS011;68405;47.190;27.558;2023-07-13T08:23:34;9.40;;;6.00;;
78838;SDS011;68405;47.190;27.558;2023-07-13T08:26:03;6.20;;;5.60;;
78838;SDS011;68405;47.190;27.558;2023-07-13T08:28:32;6.80;;;6.30;;
78838;SDS011;68405;47.190;27.558;2023-07-13T08:31:02;7.30;;;6.50;;
78838;SDS011;68405;47.190;27.558;2023-07-13T08:33:31;6.50;;;5.90;;
78838;SDS011;68405;47.190;27.558;2023-07-13T08:36:01;7.20;;;6.60;;
78838;SDS011;68405;47.190;27.558;2023-07-13T08:38:32;6.80;;;6.30;;
78838;SDS011;68405;47.190;27.558;2023-07-13T08:41:03;7.60;;;6.70;;
78838;SDS011;68405;47.190;27.558;2023-07-13T08:43:39;7.10;;;6.00;;
78838;SDS011;68405;47.190;27.558;2023-07-13T08:46:14;6.30;;;5.70;;
78838;SDS011;68405;47.190;27.558;2023-07-13T08:48:47;8.90;;;5.50;;
78838;SDS011;68405;47.190;27.558;2023-07-13T08:51:24;5.60;;;4.90;;
78838;SDS011;68405;47.190;27.558;2023-07-13T08:54:00;7.00;;;4.80;;
78838;SDS011;68405;47.190;27.558;2023-07-13T08:56:32;7.20;;;5.10;;
78838;SDS011;68405;47.190;27.558;2023-07-13T08:59:02;6.30;;;5.70;;
78838;SDS011;68405;47.190;27.558;2023-07-13T09:01:33;7.70;;;5.30;;
78838;SDS011;68405;47.190;27.558;2023-07-13T09:04:22;6.20;;;5.50;;
78838;SDS011;68405;47.190;27.558;2023-07-13T09:06:59;6.50;;;5.10;;
78838;SDS011;68405;47.190;27.558;2023-07-13T09:09:35;6.30;;;4.70;;
78838;SDS011;68405;47.190;27.558;2023-07-13T09:12:18;5.80;;;4.60;;
78838;SDS011;68405;47.190;27.558;2023-07-13T09:14:54;5.60;;;5.10;;
78838;SDS011;68405;47.190;27.558;2023-07-13T09:17:26;5.80;;;5.20;;
78838;SDS011;68405;47.190;27.558;2023-07-13T09:20:00;5.90;;;4.80;;
78838;SDS011;68405;47.190;27.558;2023-07-13T09:22:37;4.70;;;4.20;;
78838;SDS011;68405;47.190;27.558;2023-07-13T09:25:11;5.40;;;4.50;;
78838;SDS011;68405;47.190;27.558;2023-07-13T09:27:49;5.00;;;4.40;;
78838;SDS011;68405;47.190;27.558;2023-07-13T09:30:24;10.80;;;5.60;;
78838;SDS011;68405;47.190;27.558;2023-07-13T09:33:06;6.00;;;5.50;;
78838;SDS011;68405;47.190;27.558;2023-07-13T09:35:35;6.60;;;4.70;;
78838;SDS011;68405;47.190;27.558;2023-07-13T09:38:10;5.30;;;4.60;;
78838;SDS011;68405;47.190;27.558;2023-07-13T09:40:44;6.20;;;5.60;;
78838;SDS011;68405;47.190;27.558;2023-07-13T09:43:22;7.50;;;4.90;;
78838;SDS011;68405;47.190;27.558;2023-07-13T09:45:51;5.80;;;4.80;;
78838;SDS011;68405;47.190;27.558;2023-07-13T09:48:20;5.90;;;5.00;;
78838;SDS011;68405;47.190;27.558;2023-07-13T09:50:52;6.20;;;4.30;;
78838;SDS011;68405;47.190;27.558;2023-07-13T09:53:23;6.00;;;4.80;;
78838;SDS011;68405;47.190;27.558;2023-07-13T09:55:58;6.60;;;4.40;;
78838;SDS011;68405;47.190;27.558;2023-07-13T09:58:29;5.40;;;4.40;;
78838;SDS011;68405;47.190;27.558;2023-07-13T10:00:59;5.80;;;4.90;;
78838;SDS011;68405;47.190;27.558;2023-07-13T10:03:32;5.90;;;4.50;;
78838;SDS011;68405;47.190;27.558;2023-07-13T10:06:12;6.00;;;5.40;;
78838;SDS011;68405;47.190;27.558;2023-07-13T10:11:14;5.60;;;4.80;;
78838;SDS011;68405;47.190;27.558;2023-07-13T10:13:52;6.50;;;4.80;;
78838;SDS011;68405;47.190;27.558;2023-07-13T10:16:23;6.60;;;4.50;;
78838;SDS011;68405;47.190;27.558;2023-07-13T10:19:00;5.80;;;4.90;;
78838;SDS011;68405;47.190;27.558;2023-07-13T10:21:33;5.60;;;4.00;;
78838;SDS011;68405;47.190;27.558;2023-07-13T10:26:41;4.60;;;4.10;;
78838;SDS011;68405;47.190;27.558;2023-07-13T10:29:14;4.90;;;4.50;;
78838;SDS011;68405;47.190;27.558;2023-07-13T10:31:44;5.60;;;4.60;;
78838;SDS011;68405;47.190;27.558;2023-07-13T10:34:13;7.80;;;4.20;;
78838;SDS011;68405;47.190;27.558;2023-07-13T10:36:44;6.30;;;5.30;;
78838;SDS011;68405;47.190;27.558;2023-07-13T10:39:15;5.40;;;4.70;;
78838;SDS011;68405;47.190;27.558;2023-07-13T10:41:46;6.90;;;5.10;;
78838;SDS011;68405;47.190;27.558;2023-07-13T10:44:22;6.40;;;3.80;;
78838;SDS011;68405;47.190;27.558;2023-07-13T10:46:57;6.00;;;5.10;;
78838;SDS011;68405;47.190;27.558;2023-07-13T10:49:28;6.20;;;4.20;;
78838;SDS011;68405;47.190;27.558;2023-07-13T10:51:59;5.80;;;4.50;;
78838;SDS011;68405;47.190;27.558;2023-07-13T10:54:30;6.50;;;4.50;;
78838;SDS011;68405;47.190;27.558;2023-07-13T10:57:17;6.80;;;4.20;;
78838;SDS011;68405;47.190;27.558;2023-07-13T10:59:48;9.90;;;5.00;;
78838;SDS011;68405;47.190;27.558;2023-07-13T11:02:38;6.10;;;4.40;;
78838;SDS011;68405;47.190;27.558;2023-07-13T11:05:16;5.70;;;4.50;;
78838;SDS011;68405;47.190;27.558;2023-07-13T11:07:56;5.10;;;3.70;;
78838;SDS011;68405;47.190;27.558;2023-07-13T11:10:48;6.50;;;4.40;;
78838;SDS011;68405;47.190;27.558;2023-07-13T11:16:35;5.90;;;4.40;;
78838;SDS011;68405;47.190;27.558;2023-07-13T11:22:15;5.10;;;4.50;;
78838;SDS011;68405;47.190;27.558;2023-07-13T11:24:56;5.50;;;5.00;;
78838;SDS011;68405;47.190;27.558;2023-07-13T11:27:33;7.30;;;4.40;;
78838;SDS011;68405;47.190;27.558;2023-07-13T11:30:23;6.30;;;4.10;;
78838;SDS011;68405;47.190;27.558;2023-07-13T11:33:03;6.00;;;4.30;;
78838;SDS011;68405;47.190;27.558;2023-07-13T11:35:41;4.50;;;4.10;;
78838;SDS011;68405;47.190;27.558;2023-07-13T11:38:19;5.00;;;4.50;;
78838;SDS011;68405;47.190;27.558;2023-07-13T11:40:51;6.40;;;4.50;;
78838;SDS011;68405;47.190;27.558;2023-07-13T11:43:23;5.20;;;4.30;;
78838;SDS011;68405;47.190;27.558;2023-07-13T11:45:52;4.60;;;4.20;;
78838;SDS011;68405;47.190;27.558;2023-07-13T11:48:22;7.30;;;3.90;;
78838;SDS011;68405;47.190;27.558;2023-07-13T11:50:55;7.20;;;4.00;;
78838;SDS011;68405;47.190;27.558;2023-07-13T11:53:28;7.40;;;4.10;;
78838;SDS011;68405;47.190;27.558;2023-07-13T11:56:05;5.20;;;4.20;;
78838;SDS011;68405;47.190;27.558;2023-07-13T11:58:35;7.10;;;4.90;;
78838;SDS011;68405;47.190;27.558;2023-07-13T12:01:04;4.60;;;4.10;;
78838;SDS011;68405;47.190;27.558;2023-07-13T12:03:33;4.30;;;3.20;;
78838;SDS011;68405;47.190;27.558;2023-07-13T12:06:05;5.60;;;3.50;;
78838;SDS011;68405;47.190;27.558;2023-07-13T12:08:50;6.30;;;3.00;;
78838;SDS011;68405;47.190;27.558;2023-07-13T12:11:19;39.00;;;4.70;;
78838;SDS011;68405;47.190;27.558;2023-07-13T12:13:49;18.90;;;2.70;;
78838;SDS011;68405;47.190;27.558;2023-07-13T12:16:20;15.30;;;1.80;;
78838;SDS011;68405;47.190;27.558;2023-07-13T12:18:54;7.90;;;1.40;;
78838;SDS011;68405;47.190;27.558;2023-07-13T12:21:27;7.60;;;1.10;;
78838;SDS011;68405;47.190;27.558;2023-07-13T12:23:59;10.10;;;1.30;;
78838;SDS011;68405;47.190;27.558;2023-07-13T12:26:30;4.70;;;1.30;;
78838;SDS011;68405;47.190;27.558;2023-07-13T12:29:00;10.10;;;1.70;;
78838;SDS011;68405;47.190;27.558;2023-07-13T12:31:33;6.00;;;1.20;;
78838;SDS011;68405;47.190;27.558;2023-07-13T12:34:06;3.60;;;1.30;;
78838;SDS011;68405;47.190;27.558;2023-07-13T12:36:40;5.10;;;1.60;;
78838;SDS011;68405;47.190;27.558;2023-07-13T12:39:14;5.70;;;1.30;;
78838;SDS011;68405;47.190;27.558;2023-07-13T12:41:46;5.00;;;1.20;;
78838;SDS011;68405;47.190;27.558;2023-07-13T12:44:17;8.50;;;2.10;;
78838;SDS011;68405;47.190;27.558;2023-07-13T12:46:53;6.30;;;1.50;;
78838;SDS011;68405;47.190;27.558;2023-07-13T12:49:25;5.00;;;2.00;;
78838;SDS011;68405;47.190;27.558;2023-07-13T12:51:57;5.10;;;1.70;;
78838;SDS011;68405;47.190;27.558;2023-07-13T12:54:27;5.00;;;1.90;;
78838;SDS011;68405;47.190;27.558;2023-07-13T12:56:57;5.00;;;1.70;;
78838;SDS011;68405;47.190;27.558;2023-07-13T12:59:32;3.40;;;1.30;;
78838;SDS011;68405;47.190;27.558;2023-07-13T13:04:45;3.40;;;1.30;;
78838;SDS011;68405;47.190;27.558;2023-07-13T13:07:15;4.10;;;1.20;;
78838;SDS011;68405;47.190;27.558;2023-07-13T13:09:44;4.80;;;1.20;;
78838;SDS011;68405;47.190;27.558;2023-07-13T13:12:15;4.60;;;2.00;;
78838;SDS011;68405;47.190;27.558;2023-07-13T13:14:44;4.70;;;1.90;;
78838;SDS011;68405;47.190;27.558;2023-07-13T13:17:18;5.70;;;2.00;;
78838;SDS011;68405;47.190;27.558;2023-07-13T13:19:51;3.90;;;1.70;;
78838;SDS011;68405;47.190;27.558;2023-07-13T13:22:21;6.60;;;1.70;;
78838;SDS011;68405;47.190;27.558;2023-07-13T13:24:50;5.00;;;2.00;;
78838;SDS011;68405;47.190;27.558;2023-07-13T13:27:20;5.30;;;1.60;;
78838;SDS011;68405;47.190;27.558;2023-07-13T13:29:50;6.90;;;2.40;;
78838;SDS011;68405;47.190;27.558;2023-07-13T13:32:20;4.10;;;2.10;;
78838;SDS011;68405;47.190;27.558;2023-07-13T13:34:48;4.90;;;1.80;;
78838;SDS011;68405;47.190;27.558;2023-07-13T13:37:19;5.40;;;1.90;;
78838;SDS011;68405;47.190;27.558;2023-07-13T13:39:49;6.00;;;3.00;;
78838;SDS011;68405;47.190;27.558;2023-07-13T13:42:20;7.30;;;3.00;;
78838;SDS011;68405;47.190;27.558;2023-07-13T13:44:52;6.40;;;2.40;;
78838;SDS011;68405;47.190;27.558;2023-07-13T13:47:23;6.70;;;2.10;;
78838;SDS011;68405;47.190;27.558;2023-07-13T13:49:58;3.70;;;1.70;;
78838;SDS011;68405;47.190;27.558;2023-07-13T13:52:27;6.00;;;2.10;;
78838;SDS011;68405;47.190;27.558;2023-07-13T13:54:56;5.20;;;2.10;;
78838;SDS011;68405;47.190;27.558;2023-07-13T13:57:25;6.70;;;1.90;;
78838;SDS011;68405;47.190;27.558;2023-07-13T13:59:56;5.20;;;2.00;;
78838;SDS011;68405;47.190;27.558;2023-07-13T14:02:26;6.90;;;2.50;;
78838;SDS011;68405;47.190;27.558;2023-07-13T14:04:58;5.20;;;2.00;;
78838;SDS011;68405;47.190;27.558;2023-07-13T14:07:29;3.80;;;2.00;;
78838;SDS011;68405;47.190;27.558;2023-07-13T14:09:58;5.60;;;1.90;;
78838;SDS011;68405;47.190;27.558;2023-07-13T14:12:27;8.60;;;1.90;;
78838;SDS011;68405;47.190;27.558;2023-07-13T14:14:57;5.50;;;1.90;;
78838;SDS011;68405;47.190;27.558;2023-07-13T14:17:26;4.80;;;2.50;;
78838;SDS011;68405;47.190;27.558;2023-07-13T14:19:56;5.20;;;2.10;;
78838;SDS011;68405;47.190;27.558;2023-07-13T14:22:26;4.10;;;2.40;;
78838;SDS011;68405;47.190;27.558;2023-07-13T14:24:56;9.70;;;3.00;;
78838;SDS011;68405;47.190;27.558;2023-07-13T14:27:27;8.00;;;2.40;;
78838;SDS011;68405;47.190;27.558;2023-07-13T14:29:56;5.50;;;1.70;;
78838;SDS011;68405;47.190;27.558;2023-07-13T14:32:25;5.70;;;2.30;;
78838;SDS011;68405;47.190;27.558;2023-07-13T14:34:55;3.60;;;1.70;;
78838;SDS011;68405;47.190;27.558;2023-07-13T14:37:25;7.60;;;1.80;;
78838;SDS011;68405;47.190;27.558;2023-07-13T14:39:54;6.60;;;2.00;;
78838;SDS011;68405;47.190;27.558;2023-07-13T14:42:24;5.40;;;1.50;;
78838;SDS011;68405;47.190;27.558;2023-07-13T14:44:53;5.90;;;1.50;;
78838;SDS011;68405;47.190;27.558;2023-07-13T14:47:23;9.50;;;1.70;;
78838;SDS011;68405;47.190;27.558;2023-07-13T14:49:52;6.80;;;2.10;;
78838;SDS011;68405;47.190;27.558;2023-07-13T14:52:22;5.10;;;1.60;;
78838;SDS011;68405;47.190;27.558;2023-07-13T14:54:53;7.20;;;2.00;;
78838;SDS011;68405;47.190;27.558;2023-07-13T14:57:22;7.50;;;1.90;;
78838;SDS011;68405;47.190;27.558;2023-07-13T14:59:51;5.80;;;1.60;;
78838;SDS011;68405;47.190;27.558;2023-07-13T15:02:31;7.80;;;1.70;;
78838;SDS011;68405;47.190;27.558;2023-07-13T15:05:02;4.10;;;1.40;;
78838;SDS011;68405;47.190;27.558;2023-07-13T15:07:41;3.10;;;1.60;;
78838;SDS011;68405;47.190;27.558;2023-07-13T15:10:14;4.80;;;1.50;;
78838;SDS011;68405;47.190;27.558;2023-07-13T15:12:45;7.20;;;1.70;;
78838;SDS011;68405;47.190;27.558;2023-07-13T15:15:15;5.20;;;1.60;;